Hardaway, Alabama
Current Conditions -  °F | °C
As of 10:53 AM on Friday 24 Oct 2014 (Local Time) from KTOI Reporting Station
Clear Clear  
Wind Chill: 21°   Ceiling: Unl
Heat Index: 21°   Visibility: 10mi
Dew Point:   Wind: 3mph
Humidity: 45%   Direction: NA
Pressure: 30.09"   Gusts: NA
Location:  32.29°N, 85.85°W
Report Text: KTOI 241553Z AUTO VRB03KT 10SM CLR 21/08 A3009 RMK AO2 SLP185 T02060083
Loading
Personal Weather Stations






























Interactive Weather Map
Tropical Storm Tracking
New forecast layout! Learn more

10-Day Weather Forecast

Advertisements
Track Severe Weather on mobile